Time;durP1;ratioP1;P1;durP2;ratioP2;P2;SDS_P1;SDS_P2;PMS_P1;PMS_P2;Temp;Humidity;BMP_temperature;BMP_pressure;BME280_temperature;BME280_humidity;BME280_pressure;Samples;Min_cycle;Max_cycle;Signal;HPM_P1;HPM_P2
2023/12/12 00:01:41;;;;;;;10.52;4.00;;;;;;;-148.88;100.00;-17125.47;5035628;28;20444;-84
2023/12/12 00:04:07;;;;;;;13.80;4.57;;;;;;;-148.88;100.00;-17125.47;5034439;28;20415;-85
2023/12/12 00:06:33;;;;;;;16.90;5.13;;;;;;;-148.88;100.00;-17125.47;5035424;28;20073;-84
2023/12/12 00:08:58;;;;;;;9.25;3.75;;;;;;;-148.88;100.00;-17125.47;5035321;28;20463;-84
2023/12/12 00:11:24;;;;;;;14.05;4.38;;;;;;;-148.88;100.00;-17125.47;5035693;28;20038;-85
2023/12/12 00:13:52;;;;;;;12.98;4.63;;;;;;;-148.88;100.00;-17125.47;5035306;28;20022;-84
2023/12/12 00:16:17;;;;;;;8.63;3.78;;;;;;;-148.88;100.00;-17125.47;5035135;28;20025;-84
2023/12/12 00:18:54;;;;;;;10.55;4.50;;;;;;;-148.88;100.00;-17125.47;5034394;28;20032;-85
2023/12/12 00:21:20;;;;;;;12.50;4.10;;;;;;;-148.88;100.00;-17125.47;5051643;28;20032;-85
2023/12/12 00:23:45;;;;;;;14.82;4.53;;;;;;;-148.88;100.00;-17125.47;5033954;28;20022;-85
2023/12/12 00:26:12;;;;;;;11.40;4.60;;;;;;;-148.88;100.00;-17125.47;5035367;28;20075;-84
2023/12/12 00:28:39;;;;;;;11.32;4.65;;;;;;;-148.88;100.00;-17125.47;5034967;28;20029;-85
2023/12/12 00:31:05;;;;;;;12.00;4.55;;;;;;;-148.88;100.00;-17125.47;5051119;28;20083;-85
2023/12/12 00:33:30;;;;;;;13.93;5.18;;;;;;;-148.88;100.00;-17125.47;5033617;28;20025;-84
2023/12/12 00:35:57;;;;;;;19.00;8.55;;;;;;;-148.88;100.00;-17125.47;5034985;28;20031;-85
2023/12/12 00:38:28;;;;;;;14.63;4.35;;;;;;;-148.88;100.00;-17125.47;5033604;28;20111;-84
2023/12/12 00:40:54;;;;;;;19.30;4.68;;;;;;;-148.88;100.00;-17125.47;5035305;28;20017;-84
2023/12/12 00:43:23;;;;;;;12.55;4.97;;;;;;;-148.88;100.00;-17125.47;5050077;28;20033;-85
2023/12/12 00:45:48;;;;;;;10.57;3.92;;;;;;;-148.88;100.00;-17125.47;5050171;28;20026;-85
2023/12/12 00:48:14;;;;;;;12.48;4.50;;;;;;;-148.88;100.00;-17125.47;5033767;28;20032;-85
2023/12/12 00:50:39;;;;;;;10.60;3.80;;;;;;;-148.88;100.00;-17125.47;5034965;28;20036;-84
2023/12/12 00:53:05;;;;;;;15.65;4.50;;;;;;;-148.88;100.00;-17125.47;5050568;28;20108;-85
2023/12/12 00:55:31;;;;;;;12.32;4.60;;;;;;;-148.88;100.00;-17125.47;5033558;28;20503;-85
2023/12/12 00:57:57;;;;;;;7.55;3.40;;;;;;;-148.88;100.00;-17125.47;5034668;28;20013;-85
2023/12/12 01:00:22;;;;;;;7.22;3.95;;;;;;;-148.88;100.00;-17125.47;5033011;28;20032;-85
2023/12/12 01:02:49;;;;;;;15.25;3.95;;;;;;;-148.88;100.00;-17125.47;5034773;28;20028;-85
2023/12/12 01:05:14;;;;;;;11.57;3.65;;;;;;;-148.88;100.00;-17125.47;5034901;28;20025;-86
2023/12/12 01:07:42;;;;;;;13.30;4.50;;;;;;;-148.88;100.00;-17125.47;5034185;28;20028;-85
2023/12/12 01:10:08;;;;;;;13.23;4.18;;;;;;;-148.88;100.00;-17125.47;5034399;28;20087;-85
2023/12/12 01:12:34;;;;;;;13.18;4.18;;;;;;;-148.88;100.00;-17125.47;5033203;28;20029;-85
2023/12/12 01:14:59;;;;;;;10.73;3.90;;;;;;;-148.88;100.00;-17125.47;5034616;28;20025;-85
2023/12/12 01:17:28;;;;;;;11.23;3.97;;;;;;;-148.88;100.00;-17125.47;5034154;28;20032;-85
2023/12/12 01:19:53;;;;;;;9.10;3.70;;;;;;;-148.88;100.00;-17125.47;5034476;28;20392;-85
2023/12/12 01:22:19;;;;;;;7.63;3.47;;;;;;;-148.88;100.00;-17125.47;5033364;28;20472;-85
2023/12/12 01:24:44;;;;;;;12.10;3.85;;;;;;;-148.88;100.00;-17125.47;5033921;28;20033;-85
2023/12/12 01:27:10;;;;;;;11.30;4.13;;;;;;;-148.88;100.00;-17125.47;5034295;28;20022;-85
2023/12/12 01:29:35;;;;;;;13.07;4.70;;;;;;;-148.88;100.00;-17125.47;5032989;28;20063;-85
2023/12/12 01:32:01;;;;;;;9.45;3.83;;;;;;;-148.88;100.00;-17125.47;5034006;28;20032;-85
2023/12/12 01:34:27;;;;;;;21.88;8.90;;;;;;;-148.88;100.00;-17125.47;5033540;28;20075;-85
2023/12/12 01:36:52;;;;;;;18.70;4.32;;;;;;;-148.88;100.00;-17125.47;5033392;28;20389;-85
2023/12/12 01:39:18;;;;;;;8.30;4.70;;;;;;;-148.88;100.00;-17125.47;5032870;28;20021;-84
2023/12/12 01:41:47;;;;;;;9.75;3.90;;;;;;;-148.88;100.00;-17125.47;5033822;28;20021;-85
2023/12/12 01:44:13;;;;;;;15.27;3.92;;;;;;;-148.88;100.00;-17125.47;5049641;28;20032;-85
2023/12/12 01:46:38;;;;;;;11.38;4.63;;;;;;;-148.88;100.00;-17125.47;5033508;28;20392;-85
2023/12/12 01:49:05;;;;;;;10.68;3.67;;;;;;;-148.88;100.00;-17125.47;5032507;28;20403;-85
2023/12/12 01:51:30;;;;;;;12.85;4.35;;;;;;;-148.88;100.00;-17125.47;5033520;28;20026;-85
2023/12/12 01:53:59;;;;;;;15.95;4.63;;;;;;;-148.88;100.00;-17125.47;5033764;28;20120;-84
2023/12/12 01:56:26;;;;;;;14.20;4.47;;;;;;;-148.88;100.00;-17125.47;5049696;28;20021;-85
2023/12/12 01:58:52;;;;;;;21.17;9.40;;;;;;;-148.88;100.00;-17125.47;5033241;28;20549;-85
2023/12/12 02:01:20;;;;;;;18.73;9.27;;;;;;;-148.88;100.00;-17125.47;5033248;28;20404;-85
2023/12/12 02:03:46;;;;;;;15.23;4.78;;;;;;;-148.88;100.00;-17125.47;5031958;28;20017;-85
2023/12/12 02:06:14;;;;;;;9.93;4.15;;;;;;;-148.88;100.00;-17125.47;5033401;28;20032;-85
2023/12/12 02:08:49;;;;;;;12.75;5.00;;;;;;;-148.88;100.00;-17125.47;5033243;28;20080;-85
2023/12/12 02:11:16;;;;;;;11.05;4.43;;;;;;;-148.88;100.00;-17125.47;5033768;28;20029;-85
2023/12/12 02:13:41;;;;;;;12.50;4.30;;;;;;;-148.88;100.00;-17125.47;5031728;28;20096;-85
2023/12/12 02:16:11;;;;;;;20.83;4.97;;;;;;;-148.88;100.00;-17125.47;5031944;28;20059;-85
2023/12/12 02:18:36;;;;;;;14.10;4.60;;;;;;;-148.88;100.00;-17125.47;5048247;28;20026;-86
2023/12/12 02:21:02;;;;;;;12.77;5.40;;;;;;;-148.88;100.00;-17125.47;5048742;28;20075;-86
2023/12/12 02:23:28;;;;;;;13.35;4.05;;;;;;;-148.88;100.00;-17125.47;5031925;28;20021;-86
2023/12/12 02:25:54;;;;;;;11.23;4.70;;;;;;;-148.88;100.00;-17125.47;5033186;28;20484;-85
2023/12/12 02:28:20;;;;;;;15.15;5.07;;;;;;;-148.88;100.00;-17125.47;5032676;28;20067;-85
2023/12/12 02:30:45;;;;;;;13.35;4.32;;;;;;;-148.88;100.00;-17125.47;5032074;28;20129;-86
2023/12/12 02:33:10;;;;;;;10.35;4.70;;;;;;;-148.88;100.00;-17125.47;5033497;28;20096;-85
2023/12/12 02:35:36;;;;;;;13.57;5.75;;;;;;;-148.88;100.00;-17125.47;5031883;28;20438;-85
2023/12/12 02:38:01;;;;;;;9.38;4.07;;;;;;;-148.88;100.00;-17125.47;5031553;28;20068;-86
2023/12/12 02:40:30;;;;;;;15.50;5.05;;;;;;;-148.88;100.00;-17125.47;5033308;28;20018;-85
2023/12/12 02:42:55;;;;;;;16.35;5.18;;;;;;;-148.88;100.00;-17125.47;5031980;28;20117;-85
2023/12/12 02:45:23;;;;;;;14.95;5.30;;;;;;;-148.88;100.00;-17125.47;5047999;28;20022;-86
2023/12/12 02:47:49;;;;;;;11.30;4.22;;;;;;;-148.88;100.00;-17125.47;5033154;28;20098;-86
2023/12/12 02:50:15;;;;;;;15.05;9.20;;;;;;;-148.88;100.00;-17125.47;5033010;28;20037;-85
2023/12/12 02:52:40;;;;;;;9.23;3.95;;;;;;;-148.88;100.00;-17125.47;5033000;28;20029;-85
2023/12/12 02:55:11;;;;;;;14.30;4.63;;;;;;;-148.88;100.00;-17125.47;5048949;28;20176;-85
2023/12/12 02:57:37;;;;;;;14.45;4.85;;;;;;;-148.88;100.00;-17125.47;5048108;28;20533;-85
2023/12/12 03:00:03;;;;;;;13.00;4.78;;;;;;;-148.88;100.00;-17125.47;5032984;28;20116;-85
2023/12/12 03:02:29;;;;;;;14.65;5.45;;;;;;;-148.88;100.00;-17125.47;5031726;28;20025;-85
2023/12/12 03:04:54;;;;;;;16.92;5.38;;;;;;;-148.88;100.00;-17125.47;5032782;28;20112;-85
2023/12/12 03:07:20;;;;;;;13.98;5.47;;;;;;;-148.88;100.00;-17125.47;5032885;28;20097;-85
2023/12/12 03:09:45;;;;;;;15.95;4.85;;;;;;;-148.88;100.00;-17125.47;5032685;28;20053;-84
2023/12/12 03:12:11;;;;;;;21.05;10.95;;;;;;;-148.88;100.00;-17125.47;5048045;28;20029;-85
2023/12/12 03:14:37;;;;;;;18.52;5.38;;;;;;;-148.88;100.00;-17125.47;5032995;28;20022;-85
2023/12/12 03:17:02;;;;;;;10.45;4.85;;;;;;;-148.88;100.00;-17125.47;5048230;28;20037;-85
2023/12/12 03:19:28;;;;;;;13.68;4.93;;;;;;;-148.88;100.00;-17125.47;5047818;28;20018;-85
2023/12/12 03:21:53;;;;;;;15.68;6.10;;;;;;;-148.88;100.00;-17125.47;5031227;28;20031;-86
2023/12/12 03:24:31;;;;;;;11.98;4.97;;;;;;;-148.88;100.00;-17125.47;5032175;28;20040;-85
2023/12/12 03:26:56;;;;;;;17.90;5.70;;;;;;;-148.88;100.00;-17125.47;5036643;28;20026;-86
2023/12/12 03:29:21;;;;;;;16.05;6.30;;;;;;;-148.88;100.00;-17125.47;5036634;28;20037;-86
2023/12/12 03:31:47;;;;;;;13.80;4.80;;;;;;;-148.88;100.00;-17125.47;5034990;28;20025;-86
2023/12/12 03:34:12;;;;;;;15.40;5.50;;;;;;;-148.88;100.00;-17125.47;5035394;28;20027;-86
2023/12/12 03:36:44;;;;;;;12.68;4.43;;;;;;;-148.88;100.00;-17125.47;5036014;28;20435;-84
2023/12/12 03:39:10;;;;;;;19.95;5.38;;;;;;;-148.88;100.00;-17125.47;5036532;28;20437;-85
2023/12/12 03:41:36;;;;;;;13.43;5.35;;;;;;;-148.88;100.00;-17125.47;5036436;28;20035;-85
2023/12/12 03:44:02;;;;;;;12.43;4.90;;;;;;;-148.88;100.00;-17125.47;5036449;28;20504;-84
2023/12/12 03:46:29;;;;;;;14.05;5.40;;;;;;;-148.88;100.00;-17125.47;5051280;28;20025;-85
2023/12/12 03:48:55;;;;;;;15.25;5.70;;;;;;;-148.88;100.00;-17125.47;5036662;28;20061;-83
2023/12/12 03:51:23;;;;;;;14.27;5.22;;;;;;;-148.88;100.00;-17125.47;5034901;28;20400;-85
2023/12/12 03:53:48;;;;;;;20.98;11.75;;;;;;;-148.88;100.00;-17125.47;5035337;28;20021;-87
2023/12/12 03:56:14;;;;;;;14.98;4.57;;;;;;;-148.88;100.00;-17125.47;5034841;28;20017;-83
2023/12/12 03:58:39;;;;;;;10.70;4.68;;;;;;;-148.88;100.00;-17125.47;5036393;28;20026;-85
2023/12/12 04:01:06;;;;;;;15.48;4.70;;;;;;;-148.88;100.00;-17125.47;5036082;28;20127;-87
2023/12/12 04:03:32;;;;;;;15.05;5.18;;;;;;;-148.88;100.00;-17125.47;5035855;28;20381;-86
2023/12/12 04:05:57;;;;;;;17.13;4.82;;;;;;;-148.88;100.00;-17125.47;5034762;28;20021;-86
2023/12/12 04:08:23;;;;;;;16.80;4.75;;;;;;;-148.88;100.00;-17125.47;5035785;28;20028;-85
2023/12/12 04:10:48;;;;;;;10.30;4.65;;;;;;;-148.88;100.00;-17125.47;5050559;28;20148;-85
2023/12/12 04:13:13;;;;;;;16.08;5.35;;;;;;;-148.88;100.00;-17125.47;5034095;28;20022;-86
2023/12/12 04:15:39;;;;;;;14.60;5.40;;;;;;;-148.88;100.00;-17125.47;5035659;28;20038;-86
2023/12/12 04:18:04;;;;;;;10.75;4.47;;;;;;;-148.88;100.00;-17125.47;5035525;28;20021;-86
2023/12/12 04:20:30;;;;;;;17.33;11.10;;;;;;;-148.88;100.00;-17125.47;5033902;28;20075;-85
2023/12/12 04:22:55;;;;;;;15.18;5.07;;;;;;;-148.88;100.00;-17125.47;5034152;28;20025;-84
2023/12/12 04:25:21;;;;;;;14.75;6.05;;;;;;;-148.88;100.00;-17125.47;5051396;28;20418;-86
2023/12/12 04:27:46;;;;;;;11.35;4.95;;;;;;;-148.88;100.00;-17125.47;5050553;28;20030;-87
2023/12/12 04:30:12;;;;;;;18.13;5.25;;;;;;;-148.88;100.00;-17125.47;5035073;28;20399;-87
2023/12/12 04:32:37;;;;;;;13.43;4.65;;;;;;;-148.88;100.00;-17125.47;5033673;28;20030;-85
2023/12/12 04:35:09;;;;;;;15.98;5.53;;;;;;;-148.88;100.00;-17125.47;5034845;28;20037;-85
2023/12/12 04:37:35;;;;;;;22.92;12.65;;;;;;;-148.88;100.00;-17125.47;5035297;28;20439;-85
2023/12/12 04:40:01;;;;;;;13.15;4.78;;;;;;;-148.88;100.00;-17125.47;5049986;28;20033;-85
2023/12/12 04:42:26;;;;;;;16.10;5.28;;;;;;;-148.88;100.00;-17125.47;5035325;28;20025;-86
2023/12/12 04:44:52;;;;;;;13.77;5.57;;;;;;;-148.88;100.00;-17125.47;5035023;28;20033;-86
2023/12/12 04:47:17;;;;;;;15.98;6.60;;;;;;;-148.88;100.00;-17125.47;5049836;28;20029;-85
2023/12/12 04:49:43;;;;;;;15.95;4.85;;;;;;;-148.88;100.00;-17125.47;5034812;28;20033;-85
2023/12/12 04:52:08;;;;;;;16.80;5.35;;;;;;;-148.88;100.00;-17125.47;5034909;28;20029;-86
2023/12/12 04:54:36;;;;;;;12.43;4.88;;;;;;;-148.88;100.00;-17125.47;5049872;28;20111;-86
2023/12/12 04:57:02;;;;;;;13.57;5.68;;;;;;;-148.88;100.00;-17125.47;5034418;28;20022;-86
2023/12/12 04:59:28;;;;;;;13.80;5.35;;;;;;;-148.88;100.00;-17125.47;5034765;28;20029;-86
2023/12/12 05:01:53;;;;;;;21.35;11.05;;;;;;;-148.88;100.00;-17125.47;5034299;28;20025;-86
2023/12/12 05:04:19;;;;;;;20.35;6.50;;;;;;;-148.88;100.00;-17125.47;5032379;28;20071;-86
2023/12/12 05:06:44;;;;;;;16.65;6.50;;;;;;;-148.88;100.00;-17125.47;5034214;28;20021;-86
2023/12/12 05:09:12;;;;;;;12.75;5.15;;;;;;;-148.88;100.00;-17125.47;5033530;28;20499;-86
2023/12/12 05:11:37;;;;;;;19.20;6.15;;;;;;;-148.88;100.00;-17125.47;5050567;28;20485;-86
2023/12/12 05:14:06;;;;;;;15.25;5.78;;;;;;;-148.88;100.00;-17125.47;5049655;28;20605;-86
2023/12/12 05:16:32;;;;;;;17.00;5.55;;;;;;;-148.88;100.00;-17125.47;5034957;28;20021;-86
2023/12/12 05:18:57;;;;;;;16.20;5.65;;;;;;;-148.88;100.00;-17125.47;5034211;28;20160;-86
2023/12/12 05:21:22;;;;;;;13.43;5.70;;;;;;;-148.88;100.00;-17125.47;5034032;28;20029;-85
2023/12/12 05:23:48;;;;;;;15.93;5.45;;;;;;;-148.88;100.00;-17125.47;5034476;28;20021;-87
2023/12/12 05:26:15;;;;;;;15.07;5.57;;;;;;;-148.88;100.00;-17125.47;5032938;28;20018;-86
2023/12/12 05:28:40;;;;;;;12.63;5.45;;;;;;;-148.88;100.00;-17125.47;5034708;28;20033;-86
2023/12/12 05:31:11;;;;;;;22.17;11.68;;;;;;;-148.88;100.00;-17125.47;5049988;28;20037;-86
2023/12/12 05:33:43;;;;;;;15.88;5.68;;;;;;;-148.88;100.00;-17125.47;5034991;28;20108;-87
2023/12/12 05:36:09;;;;;;;13.02;5.50;;;;;;;-148.88;100.00;-17125.47;5033246;28;20094;-86
2023/12/12 05:38:35;;;;;;;15.43;5.60;;;;;;;-148.88;100.00;-17125.47;5049116;28;20052;-86
2023/12/12 05:41:00;;;;;;;17.15;5.45;;;;;;;-148.88;100.00;-17125.47;5035358;28;20025;-86
2023/12/12 05:43:31;;;;;;;13.55;5.60;;;;;;;-148.88;100.00;-17125.47;5032589;28;20025;-85
2023/12/12 05:45:57;;;;;;;15.50;5.63;;;;;;;-148.88;100.00;-17125.47;5034297;28;20421;-86
2023/12/12 05:48:22;;;;;;;17.88;6.38;;;;;;;-148.88;100.00;-17125.47;5048713;28;20073;-86
2023/12/12 05:50:48;;;;;;;13.45;5.43;;;;;;;-148.88;100.00;-17125.47;5033577;28;20113;-85
2023/12/12 05:53:14;;;;;;;16.50;6.45;;;;;;;-148.88;100.00;-17125.47;5032972;28;20076;-85
2023/12/12 05:55:39;;;;;;;18.67;6.43;;;;;;;-148.88;100.00;-17125.47;5048957;28;20021;-85
2023/12/12 05:58:04;;;;;;;19.42;7.13;;;;;;;-148.88;100.00;-17125.47;5032875;28;20029;-86
2023/12/12 06:00:30;;;;;;;14.10;6.05;;;;;;;-148.88;100.00;-17125.47;5049505;28;20071;-86
2023/12/12 06:02:55;;;;;;;15.60;5.93;;;;;;;-148.88;100.00;-17125.47;5032050;28;20026;-85
2023/12/12 06:05:21;;;;;;;17.73;7.95;;;;;;;-148.88;100.00;-17125.47;5034529;28;20074;-85
2023/12/12 06:07:46;;;;;;;19.83;8.25;;;;;;;-148.88;100.00;-17125.47;5049212;28;20026;-86
2023/12/12 06:10:12;;;;;;;19.98;8.57;;;;;;;-148.88;100.00;-17125.47;5049752;28;20056;-85
2023/12/12 06:12:38;;;;;;;19.60;8.13;;;;;;;-148.88;100.00;-17125.47;5032177;28;20028;-86
2023/12/12 06:15:07;;;;;;;17.77;8.10;;;;;;;-148.88;100.00;-17125.47;5031794;28;20033;-86
2023/12/12 06:17:38;;;;;;;19.55;7.70;;;;;;;-148.88;100.00;-17125.47;5048525;28;20159;-85
2023/12/12 06:20:07;;;;;;;20.98;9.10;;;;;;;-148.88;100.00;-17125.47;5032034;28;20036;-86
2023/12/12 06:22:34;;;;;;;19.15;8.73;;;;;;;-148.88;100.00;-17125.47;5048781;28;20425;-86
2023/12/12 06:24:59;;;;;;;20.48;8.77;;;;;;;-148.88;100.00;-17125.47;5033332;28;20025;-86
2023/12/12 06:27:24;;;;;;;22.58;9.45;;;;;;;-148.88;100.00;-17125.47;5033603;28;20353;-85
2023/12/12 06:29:50;;;;;;;21.88;8.95;;;;;;;-148.88;100.00;-17125.47;5032443;28;20030;-86
2023/12/12 06:32:19;;;;;;;27.80;9.75;;;;;;;-148.88;100.00;-17125.47;5034105;28;20026;-85
2023/12/12 06:34:45;;;;;;;19.13;8.77;;;;;;;-148.88;100.00;-17125.47;5032816;28;20377;-85
2023/12/12 06:37:10;;;;;;;23.77;9.77;;;;;;;-148.88;100.00;-17125.47;5034133;28;20056;-85
2023/12/12 06:39:36;;;;;;;22.63;9.73;;;;;;;-148.88;100.00;-17125.47;5036344;28;20025;-86
2023/12/12 06:42:01;;;;;;;23.45;9.27;;;;;;;-148.88;100.00;-17125.47;5033448;28;20047;-85
2023/12/12 06:44:27;;;;;;;22.02;10.38;;;;;;;-148.88;100.00;-17125.47;5049465;28;20032;-86
2023/12/12 06:46:52;;;;;;;25.77;10.52;;;;;;;-148.88;100.00;-17125.47;5032686;28;20025;-85
2023/12/12 06:49:17;;;;;;;30.60;11.82;;;;;;;-148.88;100.00;-17125.47;5048210;28;20041;-86
2023/12/12 06:51:43;;;;;;;23.55;10.93;;;;;;;-148.88;100.00;-17125.47;5031568;28;20083;-86
2023/12/12 06:54:08;;;;;;;26.73;11.90;;;;;;;-148.88;100.00;-17125.47;5031691;28;20036;-86
2023/12/12 06:56:34;;;;;;;37.75;14.60;;;;;;;-148.88;100.00;-17125.47;5033545;28;20025;-87
2023/12/12 06:58:59;;;;;;;55.40;21.63;;;;;;;-148.88;100.00;-17125.47;5039669;28;20006;-86
2023/12/12 07:01:25;;;;;;;70.93;42.58;;;;;;;-148.88;100.00;-17125.47;5070459;28;20025;-85
2023/12/12 07:03:50;;;;;;;51.35;18.73;;;;;;;-148.88;100.00;-17125.47;5085142;28;20036;-86
2023/12/12 07:06:19;;;;;;;49.60;19.70;;;;;;;-148.88;100.00;-17125.47;5059399;28;20041;-87
2023/12/12 07:08:45;;;;;;;46.35;17.48;;;;;;;-148.88;100.00;-17125.47;5041020;28;20025;-86
2023/12/12 07:11:11;;;;;;;39.85;17.60;;;;;;;-148.88;100.00;-17125.47;5054948;28;20041;-86
2023/12/12 07:13:37;;;;;;;42.45;17.80;;;;;;;-148.88;100.00;-17125.47;5053502;28;20111;-86
2023/12/12 07:16:09;;;;;;;36.05;15.05;;;;;;;-148.88;100.00;-17125.47;5044879;28;20060;-86
2023/12/12 07:18:34;;;;;;;46.47;18.45;;;;;;;-148.88;100.00;-17125.47;5044725;28;20029;-87
2023/12/12 07:21:00;;;;;;;48.90;20.17;;;;;;;-148.88;100.00;-17125.47;5056563;28;20032;-86
2023/12/12 07:23:25;;;;;;;62.35;39.30;;;;;;;-148.88;100.00;-17125.47;5056528;28;20399;-87
2023/12/12 07:25:50;;;;;;;64.65;37.80;;;;;;;-148.88;100.00;-17125.47;5055418;28;20108;-86
2023/12/12 07:28:16;;;;;;;45.00;18.38;;;;;;;-148.88;100.00;-17125.47;5055107;28;20438;-86
2023/12/12 07:30:44;;;;;;;34.17;14.93;;;;;;;-148.88;100.00;-17125.47;5056557;28;20033;-86
2023/12/12 07:33:11;;;;;;;40.28;15.05;;;;;;;-148.88;100.00;-17125.47;5056405;28;20071;-86
2023/12/12 07:35:40;;;;;;;36.35;16.52;;;;;;;-148.88;100.00;-17125.47;5057218;28;20073;-86
2023/12/12 07:38:08;;;;;;;30.00;14.18;;;;;;;-148.88;100.00;-17125.47;5055215;28;20061;-86
2023/12/12 07:40:33;;;;;;;27.80;12.82;;;;;;;-148.88;100.00;-17125.47;5055158;28;20033;-87
2023/12/12 07:42:59;;;;;;;28.90;13.95;;;;;;;-148.88;100.00;-17125.47;5055125;28;20033;-87
2023/12/12 07:45:25;;;;;;;35.78;15.60;;;;;;;-148.88;100.00;-17125.47;5056665;28;20111;-87
2023/12/12 07:47:50;;;;;;;39.08;15.77;;;;;;;-148.88;100.00;-17125.47;5054630;28;20094;-87
2023/12/12 07:50:17;;;;;;;42.53;17.27;;;;;;;-148.88;100.00;-17125.47;5055949;28;20029;-87
2023/12/12 07:52:43;;;;;;;60.08;33.17;;;;;;;-148.88;100.00;-17125.47;5055192;28;20036;-86
2023/12/12 07:55:08;;;;;;;42.35;16.30;;;;;;;-148.88;100.00;-17125.47;5047068;28;20025;-87
2023/12/12 07:57:37;;;;;;;42.20;15.93;;;;;;;-148.88;100.00;-17125.47;5039103;28;20022;-87
2023/12/12 08:00:07;;;;;;;42.75;16.83;;;;;;;-148.88;100.00;-17125.47;5040031;28;20029;-86
2023/12/12 08:02:33;;;;;;;40.80;14.98;;;;;;;-148.88;100.00;-17125.47;5047741;28;20025;-86
2023/12/12 08:05:04;;;;;;;44.65;17.15;;;;;;;-148.88;100.00;-17125.47;5032692;28;20038;-85
2023/12/12 08:07:31;;;;;;;33.83;15.33;;;;;;;-148.88;100.00;-17125.47;5067164;28;20025;-88
2023/12/12 08:09:57;;;;;;;39.95;15.27;;;;;;;-148.88;100.00;-17125.47;5041690;28;20029;-86
2023/12/12 08:12:28;;;;;;;34.80;13.93;;;;;;;-148.88;100.00;-17125.47;5036700;28;20025;-86
2023/12/12 08:14:55;;;;;;;55.65;29.00;;;;;;;-148.88;100.00;-17125.47;5035490;28;20083;-86
2023/12/12 08:17:20;;;;;;;41.58;15.00;;;;;;;-148.88;100.00;-17125.47;5036016;28;20021;-88
2023/12/12 08:19:46;;;;;;;35.10;14.52;;;;;;;-148.88;100.00;-17125.47;5034795;28;20029;-88
2023/12/12 08:22:12;;;;;;;53.30;29.60;;;;;;;-148.88;100.00;-17125.47;5033980;28;20541;-87
2023/12/12 08:24:37;;;;;;;57.90;30.23;;;;;;;-148.88;100.00;-17125.47;5048087;28;20385;-87
2023/12/12 08:27:03;;;;;;;42.55;14.02;;;;;;;-148.88;100.00;-17125.47;5042902;28;20079;-87
2023/12/12 08:29:28;;;;;;;34.10;12.73;;;;;;;-148.88;100.00;-17125.47;5044898;28;20022;-87
2023/12/12 08:31:57;;;;;;;39.03;14.07;;;;;;;-148.88;100.00;-17125.47;5043617;28;20032;-87
2023/12/12 08:34:23;;;;;;;38.70;12.80;;;;;;;-148.88;100.00;-17125.47;5048320;28;20032;-87
2023/12/12 08:36:48;;;;;;;38.28;12.85;;;;;;;-148.88;100.00;-17125.47;5048630;28;20017;-86
2023/12/12 08:39:14;;;;;;;35.38;14.02;;;;;;;-148.88;100.00;-17125.47;5040030;28;20025;-87
2023/12/12 08:41:40;;;;;;;33.80;12.48;;;;;;;-148.88;100.00;-17125.47;5032582;28;20086;-86
2023/12/12 08:44:05;;;;;;;29.23;11.50;;;;;;;-148.88;100.00;-17125.47;5034125;28;20484;-86
2023/12/12 08:46:30;;;;;;;30.30;12.20;;;;;;;-148.88;100.00;-17125.47;5035152;28;20078;-88
2023/12/12 08:48:57;;;;;;;35.25;12.35;;;;;;;-148.88;100.00;-17125.47;5033733;28;20060;-88
2023/12/12 08:51:24;;;;;;;29.17;10.13;;;;;;;-148.88;100.00;-17125.47;5034112;28;20026;-88
2023/12/12 08:53:51;;;;;;;30.00;11.05;;;;;;;-148.88;100.00;-17125.47;5033378;28;20054;-87
2023/12/12 08:56:17;;;;;;;25.88;10.65;;;;;;;-148.88;100.00;-17125.47;5033429;28;20030;-87
2023/12/12 08:58:44;;;;;;;30.67;10.98;;;;;;;-148.88;100.00;-17125.47;5034682;28;20049;-87
2023/12/12 09:01:09;;;;;;;25.38;9.60;;;;;;;-148.88;100.00;-17125.47;5033495;28;20442;-87
2023/12/12 09:03:35;;;;;;;24.63;9.48;;;;;;;-148.88;100.00;-17125.47;5035446;28;20496;-86
2023/12/12 09:06:01;;;;;;;37.08;18.60;;;;;;;-148.88;100.00;-17125.47;5035319;28;20108;-86
2023/12/12 09:08:26;;;;;;;31.25;10.52;;;;;;;-148.88;100.00;-17125.47;5034353;28;20021;-85
2023/12/12 09:10:52;;;;;;;28.88;9.82;;;;;;;-148.88;100.00;-17125.47;5034717;28;20025;-85
2023/12/12 09:13:17;;;;;;;39.97;16.58;;;;;;;-148.88;100.00;-17125.47;5034209;28;20036;-84
2023/12/12 09:15:43;;;;;;;32.55;9.63;;;;;;;-148.88;100.00;-17125.47;5033030;28;20033;-84
2023/12/12 09:18:09;;;;;;;28.33;7.85;;;;;;;-148.88;100.00;-17125.47;5033754;28;20060;-84
2023/12/12 09:20:35;;;;;;;36.92;16.48;;;;;;;-148.88;100.00;-17125.47;5032561;28;20041;-85
2023/12/12 09:23:00;;;;;;;29.10;9.45;;;;;;;-148.88;100.00;-17125.47;5034369;28;20557;-84
2023/12/12 09:25:26;;;;;;;23.48;8.98;;;;;;;-148.88;100.00;-17125.47;5033517;28;20529;-84
2023/12/12 09:27:51;;;;;;;32.55;15.35;;;;;;;-148.88;100.00;-17125.47;5034208;28;20028;-84
2023/12/12 09:30:17;;;;;;;24.90;8.32;;;;;;;-148.88;100.00;-17125.47;5034379;28;20037;-85
2023/12/12 09:32:45;;;;;;;36.78;15.85;;;;;;;-148.88;100.00;-17125.47;5034041;28;20116;-85
2023/12/12 09:35:10;;;;;;;18.70;7.47;;;;;;;-148.88;100.00;-17125.47;5034230;28;20400;-84
2023/12/12 09:37:36;;;;;;;23.00;7.40;;;;;;;-148.88;100.00;-17125.47;5034431;28;20100;-84
2023/12/12 09:40:04;;;;;;;21.88;7.22;;;;;;;-148.88;100.00;-17125.47;5033874;28;20044;-84
2023/12/12 09:42:32;;;;;;;17.15;7.63;;;;;;;-148.88;100.00;-17125.47;5034257;28;20053;-84
2023/12/12 09:44:59;;;;;;;21.48;5.88;;;;;;;-148.88;100.00;-17125.47;5032582;28;20030;-84
2023/12/12 09:47:28;;;;;;;20.85;6.65;;;;;;;-148.88;100.00;-17125.47;5032854;28;20018;-85
2023/12/12 09:49:55;;;;;;;15.55;5.25;;;;;;;-148.88;100.00;-17125.47;5033882;28;20365;-84
2023/12/12 09:52:23;;;;;;;20.63;6.00;;;;;;;-148.88;100.00;-17125.47;5034005;28;20486;-83
2023/12/12 09:54:49;;;;;;;28.85;11.13;;;;;;;-148.88;100.00;-17125.47;5034022;28;20026;-84
2023/12/12 09:57:17;;;;;;;26.83;10.90;;;;;;;-148.88;100.00;-17125.47;5033798;28;20021;-84
2023/12/12 09:59:43;;;;;;;19.55;6.47;;;;;;;-148.88;100.00;-17125.47;5033365;28;20075;-84
2023/12/12 10:02:15;;;;;;;18.27;6.00;;;;;;;-148.88;100.00;-17125.47;5033736;28;20026;-84
2023/12/12 10:04:43;;;;;;;17.77;5.70;;;;;;;-148.88;100.00;-17125.47;5033484;28;20028;-84
2023/12/12 10:07:11;;;;;;;14.40;5.25;;;;;;;-148.88;100.00;-17125.47;5034073;28;20018;-85
2023/12/12 10:09:37;;;;;;;24.05;8.90;;;;;;;-148.88;100.00;-17125.47;5033921;28;20057;-83
2023/12/12 10:12:03;;;;;;;17.10;5.10;;;;;;;-148.88;100.00;-17125.47;5034463;28;20061;-84
2023/12/12 10:14:39;;;;;;;24.23;9.65;;;;;;;-148.88;100.00;-17125.47;5034180;28;20033;-84
2023/12/12 10:17:05;;;;;;;22.95;9.57;;;;;;;-148.88;100.00;-17125.47;5034506;28;20108;-84
2023/12/12 10:19:31;;;;;;;15.60;5.93;;;;;;;-148.88;100.00;-17125.47;5033611;28;20022;-83
2023/12/12 10:22:04;;;;;;;25.77;9.90;;;;;;;-148.88;100.00;-17125.47;5032491;28;20465;-84
2023/12/12 10:24:29;;;;;;;15.98;6.50;;;;;;;-148.88;100.00;-17125.47;5032691;28;20080;-82
2023/12/12 10:26:54;;;;;;;25.45;10.75;;;;;;;-148.88;100.00;-17125.47;5034133;28;20061;-83
2023/12/12 10:29:20;;;;;;;18.80;5.72;;;;;;;-148.88;100.00;-17125.47;5034182;28;20087;-83
2023/12/12 10:31:49;;;;;;;17.00;5.95;;;;;;;-148.88;100.00;-17125.47;5034396;28;20373;-82
2023/12/12 10:34:17;;;;;;;24.08;11.23;;;;;;;-148.88;100.00;-17125.47;5040194;28;20484;-83
2023/12/12 10:36:46;;;;;;;17.67;5.45;;;;;;;-148.88;100.00;-17125.47;5040917;28;20141;-82
2023/12/12 10:39:13;;;;;;;25.23;10.05;;;;;;;-148.88;100.00;-17125.47;5041112;28;20021;-82
2023/12/12 10:41:38;;;;;;;22.30;10.02;;;;;;;-148.88;100.00;-17125.47;5039267;28;20017;-82
2023/12/12 10:44:06;;;;;;;18.83;5.70;;;;;;;-148.88;100.00;-17125.47;5040872;28;20029;-82
2023/12/12 10:46:36;;;;;;;16.17;5.00;;;;;;;-148.88;100.00;-17125.47;5041354;28;20029;-81
2023/12/12 10:49:02;;;;;;;16.13;5.90;;;;;;;-148.88;100.00;-17125.47;5043020;28;20376;-83